Time;durP1;ratioP1;P1;durP2;ratioP2;P2;SDS_P1;SDS_P2;PMS_P1;PMS_P2;Temp;Humidity;BMP_temperature;BMP_pressure;BME280_temperature;BME280_humidity;BME280_pressure;Samples;Min_cycle;Max_cycle;Signal;HPM_P1;HPM_P2
2022/09/15 00:01:00;;;;;;;1.30;1.20;;;;;;;;;;5053776;28;20200;-63
2022/09/15 00:03:28;;;;;;;1.43;1.30;;;;;;;;;;5063306;28;20234;-63
2022/09/15 00:05:56;;;;;;;1.33;1.10;;;;;;;;;;5060633;28;20347;-63
2022/09/15 00:08:26;;;;;;;1.37;1.20;;;;;;;;;;5064236;28;20207;-63
2022/09/15 00:10:55;;;;;;;2.60;1.17;;;;;;;;;;5059016;28;20198;-62
2022/09/15 00:13:23;;;;;;;1.10;1.00;;;;;;;;;;5064819;28;20231;-63
2022/09/15 00:15:51;;;;;;;1.67;1.30;;;;;;;;;;5059998;28;20197;-63
2022/09/15 00:18:19;;;;;;;2.33;1.27;;;;;;;;;;5064324;28;20210;-65
2022/09/15 00:20:47;;;;;;;2.17;1.20;;;;;;;;;;5059439;28;20196;-64
2022/09/15 00:23:16;;;;;;;3.67;1.10;;;;;;;;;;5065428;28;20223;-65
2022/09/15 00:25:46;;;;;;;2.07;0.97;;;;;;;;;;5060483;28;20218;-65
2022/09/15 00:28:15;;;;;;;2.10;1.23;;;;;;;;;;5066195;28;20231;-65
2022/09/15 00:30:43;;;;;;;2.47;1.13;;;;;;;;;;5059284;28;20577;-65
2022/09/15 00:33:11;;;;;;;2.17;1.03;;;;;;;;;;5073918;28;20200;-65
2022/09/15 00:35:39;;;;;;;2.37;1.23;;;;;;;;;;5061678;28;20197;-65
2022/09/15 00:38:08;;;;;;;3.03;1.07;;;;;;;;;;5066053;28;20223;-65
2022/09/15 00:40:43;;;;;;;1.73;1.10;;;;;;;;;;5058259;28;20217;-65
2022/09/15 00:43:13;;;;;;;2.53;0.90;;;;;;;;;;5067099;28;20224;-65
2022/09/15 00:45:41;;;;;;;1.53;1.10;;;;;;;;;;5057742;28;20584;-65
2022/09/15 00:48:11;;;;;;;1.80;1.20;;;;;;;;;;5058946;28;20201;-65
2022/09/15 00:50:41;;;;;;;6.27;1.30;;;;;;;;;;5056759;28;20578;-65
2022/09/15 00:53:10;;;;;;;1.77;1.10;;;;;;;;;;5071690;28;20240;-65
2022/09/15 00:55:39;;;;;;;5.93;1.10;;;;;;;;;;5063485;28;20679;-66
2022/09/15 00:58:10;;;;;;;3.13;0.90;;;;;;;;;;5067460;28;20240;-66
2022/09/15 01:00:42;;;;;;;1.13;0.97;;;;;;;;;;5061367;28;20688;-65
2022/09/15 01:03:10;;;;;;;2.03;1.20;;;;;;;;;;5068951;28;20204;-64
2022/09/15 01:05:40;;;;;;;2.17;1.27;;;;;;;;;;5062289;28;20229;-64
2022/09/15 01:08:09;;;;;;;4.13;1.80;;;;;;;;;;5070256;28;20208;-64
2022/09/15 01:10:38;;;;;;;5.67;2.40;;;;;;;;;;5063043;28;20208;-64
2022/09/15 01:13:07;;;;;;;4.40;1.73;;;;;;;;;;5069642;28;20670;-63
2022/09/15 01:15:39;;;;;;;5.87;2.00;;;;;;;;;;5062045;28;20211;-63
2022/09/15 01:18:14;;;;;;;4.80;2.17;;;;;;;;;;5077016;28;20214;-63
2022/09/15 01:20:53;;;;;;;1.73;1.43;;;;;;;;;;5062913;28;20224;-63
2022/09/15 01:23:35;;;;;;;1.70;1.60;;;;;;;;;;5067876;28;20282;-64
2022/09/15 01:26:15;;;;;;;3.27;1.73;;;;;;;;;;5053953;28;20253;-64
2022/09/15 01:28:57;;;;;;;4.13;1.80;;;;;;;;;;5065345;28;20678;-64
2022/09/15 01:31:30;;;;;;;5.43;1.83;;;;;;;;;;5063289;28;20254;-64
2022/09/15 01:34:01;;;;;;;1.97;1.30;;;;;;;;;;5063547;28;20681;-64
2022/09/15 01:36:35;;;;;;;4.13;1.63;;;;;;;;;;5069024;28;20198;-64
2022/09/15 01:39:04;;;;;;;2.57;1.77;;;;;;;;;;5061985;28;20261;-64
2022/09/15 01:41:34;;;;;;;2.20;1.87;;;;;;;;;;5069258;28;20252;-64
2022/09/15 01:44:05;;;;;;;3.97;1.40;;;;;;;;;;5061156;28;20234;-65
2022/09/15 01:46:35;;;;;;;3.70;1.83;;;;;;;;;;5063048;28;20227;-64
2022/09/15 01:49:05;;;;;;;3.10;1.70;;;;;;;;;;5080675;28;20206;-64
2022/09/15 01:51:33;;;;;;;1.93;1.60;;;;;;;;;;5076835;28;20253;-64
2022/09/15 01:54:02;;;;;;;4.17;1.93;;;;;;;;;;5060121;28;20226;-64
2022/09/15 01:56:30;;;;;;;2.07;1.73;;;;;;;;;;5062134;28;20205;-64
2022/09/15 01:58:58;;;;;;;4.73;2.17;;;;;;;;;;5061497;28;20210;-64
2022/09/15 02:01:30;;;;;;;2.87;1.70;;;;;;;;;;5050696;28;20208;-64
2022/09/15 02:04:03;;;;;;;3.70;1.70;;;;;;;;;;5057561;28;20752;-64
2022/09/15 02:06:36;;;;;;;6.87;1.70;;;;;;;;;;5059321;28;20234;-64
2022/09/15 02:09:06;;;;;;;3.70;2.03;;;;;;;;;;5076326;28;20206;-63
2022/09/15 02:11:35;;;;;;;2.33;1.80;;;;;;;;;;5059785;28;20211;-64
2022/09/15 02:14:10;;;;;;;2.93;1.67;;;;;;;;;;5057972;28;20229;-64
2022/09/15 02:16:39;;;;;;;2.63;1.40;;;;;;;;;;5065205;28;20191;-64
2022/09/15 02:19:16;;;;;;;5.27;1.40;;;;;;;;;;5056467;28;20214;-64
2022/09/15 02:21:52;;;;;;;2.40;1.33;;;;;;;;;;5058642;28;20202;-64
2022/09/15 02:24:22;;;;;;;2.50;1.17;;;;;;;;;;5067799;28;20222;-63
2022/09/15 02:26:52;;;;;;;2.37;1.20;;;;;;;;;;5059684;28;20241;-63
2022/09/15 02:29:21;;;;;;;3.63;1.43;;;;;;;;;;5065033;28;20217;-63
2022/09/15 02:31:51;;;;;;;1.40;1.23;;;;;;;;;;5071342;28;20209;-63
2022/09/15 02:34:22;;;;;;;2.83;1.43;;;;;;;;;;5067910;28;20238;-63
2022/09/15 02:36:51;;;;;;;1.50;1.10;;;;;;;;;;5058465;28;20585;-63
2022/09/15 02:39:20;;;;;;;1.83;1.20;;;;;;;;;;5069645;28;20215;-63
2022/09/15 02:41:48;;;;;;;4.93;1.37;;;;;;;;;;5058271;28;20203;-63
2022/09/15 02:44:16;;;;;;;1.23;1.17;;;;;;;;;;5069088;28;20705;-64
2022/09/15 02:46:44;;;;;;;2.93;1.40;;;;;;;;;;5061034;28;20215;-63
2022/09/15 02:49:13;;;;;;;5.03;1.40;;;;;;;;;;5063380;28;20203;-63
2022/09/15 02:51:42;;;;;;;7.93;1.50;;;;;;;;;;5024434;28;1272952;-63
2022/09/15 02:54:10;;;;;;;1.90;1.40;;;;;;;;;;5059559;28;20247;-63
2022/09/15 02:56:38;;;;;;;2.77;1.40;;;;;;;;;;5069199;28;20202;-63
2022/09/15 02:59:06;;;;;;;3.00;1.37;;;;;;;;;;5059677;28;20207;-63
2022/09/15 03:01:34;;;;;;;1.60;1.20;;;;;;;;;;5068620;28;20210;-63
2022/09/15 03:04:03;;;;;;;1.53;1.20;;;;;;;;;;5068619;28;20222;-63
2022/09/15 03:06:33;;;;;;;2.63;1.27;;;;;;;;;;5058802;28;20688;-63
2022/09/15 03:09:04;;;;;;;4.90;1.80;;;;;;;;;;5065234;28;20200;-63
2022/09/15 03:11:32;;;;;;;3.20;1.80;;;;;;;;;;5068743;28;20262;-63
2022/09/15 03:14:01;;;;;;;3.53;1.47;;;;;;;;;;5062684;28;20264;-63
2022/09/15 03:16:30;;;;;;;3.40;1.37;;;;;;;;;;5062797;28;20214;-62
2022/09/15 03:18:58;;;;;;;3.17;1.47;;;;;;;;;;5065828;28;20203;-63
2022/09/15 03:21:28;;;;;;;5.00;1.37;;;;;;;;;;5060475;28;20742;-63
2022/09/15 03:23:56;;;;;;;1.47;1.37;;;;;;;;;;5065597;28;20224;-63
2022/09/15 03:26:25;;;;;;;2.00;1.43;;;;;;;;;;5061865;28;20725;-63
2022/09/15 03:28:53;;;;;;;4.23;1.63;;;;;;;;;;5064691;28;20206;-63
2022/09/15 03:31:21;;;;;;;3.37;1.40;;;;;;;;;;5061199;28;20215;-63
2022/09/15 03:33:49;;;;;;;1.97;1.40;;;;;;;;;;5054336;28;20229;-63
2022/09/15 03:36:17;;;;;;;3.00;1.40;;;;;;;;;;5059766;28;20222;-63
2022/09/15 03:38:45;;;;;;;2.20;1.33;;;;;;;;;;5057541;28;20204;-63
2022/09/15 03:41:13;;;;;;;3.40;1.50;;;;;;;;;;5065547;28;20217;-63
2022/09/15 03:43:42;;;;;;;3.77;1.73;;;;;;;;;;5065296;28;20718;-63
2022/09/15 03:46:11;;;;;;;3.13;1.40;;;;;;;;;;5064896;28;20658;-63
2022/09/15 03:48:40;;;;;;;2.00;1.20;;;;;;;;;;5067664;28;20201;-64
2022/09/15 03:51:09;;;;;;;3.27;1.70;;;;;;;;;;5065560;28;20857;-66
2022/09/15 03:53:37;;;;;;;1.70;1.43;;;;;;;;;;5066851;28;20300;-66
2022/09/15 03:56:13;;;;;;;2.40;1.53;;;;;;;;;;5065448;28;20205;-65
2022/09/15 03:58:43;;;;;;;3.10;1.37;;;;;;;;;;5064271;28;20202;-64
2022/09/15 04:01:11;;;;;;;2.93;1.30;;;;;;;;;;5061966;28;20208;-65
2022/09/15 04:03:39;;;;;;;2.73;1.60;;;;;;;;;;5065590;28;20254;-64
2022/09/15 04:06:14;;;;;;;6.10;1.63;;;;;;;;;;5064399;28;20205;-65
2022/09/15 04:08:42;;;;;;;4.87;1.63;;;;;;;;;;5063219;28;20292;-65
2022/09/15 04:11:11;;;;;;;2.60;1.70;;;;;;;;;;5064912;28;20198;-65
2022/09/15 04:13:40;;;;;;;3.20;1.53;;;;;;;;;;5066120;28;20229;-64
2022/09/15 04:16:11;;;;;;;3.93;1.60;;;;;;;;;;5066477;28;20204;-62
2022/09/15 04:18:39;;;;;;;3.83;1.87;;;;;;;;;;5065562;28;20207;-62
2022/09/15 04:21:08;;;;;;;1.50;1.40;;;;;;;;;;5064822;28;20613;-63
2022/09/15 04:23:36;;;;;;;5.17;2.30;;;;;;;;;;5065878;28;20221;-63
2022/09/15 04:26:05;;;;;;;5.20;2.20;;;;;;;;;;5058493;28;20203;-63
2022/09/15 04:28:33;;;;;;;5.53;1.90;;;;;;;;;;5057988;28;20250;-65
2022/09/15 04:31:05;;;;;;;4.70;2.40;;;;;;;;;;5055709;28;20203;-65
2022/09/15 04:33:35;;;;;;;3.63;2.43;;;;;;;;;;5058876;28;20219;-65
2022/09/15 04:36:04;;;;;;;3.97;1.97;;;;;;;;;;5056311;28;20210;-63
2022/09/15 04:38:32;;;;;;;4.27;2.10;;;;;;;;;;5060670;28;20253;-63
2022/09/15 04:41:01;;;;;;;5.33;2.70;;;;;;;;;;5074884;28;20209;-63
2022/09/15 04:43:28;;;;;;;7.57;3.43;;;;;;;;;;5065433;28;20217;-65
2022/09/15 04:45:56;;;;;;;6.47;3.20;;;;;;;;;;5062872;28;20205;-65
2022/09/15 04:48:25;;;;;;;3.13;2.77;;;;;;;;;;5066172;28;20256;-65
2022/09/15 04:50:54;;;;;;;3.20;2.50;;;;;;;;;;5060975;28;20289;-65
2022/09/15 04:53:22;;;;;;;6.17;2.50;;;;;;;;;;5057476;28;20320;-65
2022/09/15 04:55:50;;;;;;;4.27;3.00;;;;;;;;;;5060417;28;20212;-65
2022/09/15 04:58:18;;;;;;;3.60;2.53;;;;;;;;;;5066397;28;20211;-65
2022/09/15 05:00:46;;;;;;;8.73;2.97;;;;;;;;;;5071641;28;20209;-64
2022/09/15 05:03:14;;;;;;;3.40;1.90;;;;;;;;;;5064258;28;20224;-63
2022/09/15 05:05:42;;;;;;;3.37;2.30;;;;;;;;;;5067872;28;20292;-62
2022/09/15 05:08:11;;;;;;;3.67;1.93;;;;;;;;;;5054886;28;20227;-63
2022/09/15 05:10:39;;;;;;;4.00;2.30;;;;;;;;;;5058047;28;20210;-63
2022/09/15 05:13:07;;;;;;;6.27;2.30;;;;;;;;;;5053425;28;20215;-63
2022/09/15 05:15:39;;;;;;;8.03;2.50;;;;;;;;;;5057098;28;20213;-64
2022/09/15 05:18:07;;;;;;;3.73;2.47;;;;;;;;;;5056573;28;20195;-64
2022/09/15 05:20:35;;;;;;;5.50;3.20;;;;;;;;;;5056660;28;20209;-64
2022/09/15 05:23:03;;;;;;;4.73;3.83;;;;;;;;;;5055035;28;20670;-63
2022/09/15 05:25:33;;;;;;;8.67;4.07;;;;;;;;;;5047151;28;20217;-64
2022/09/15 05:28:01;;;;;;;7.77;3.83;;;;;;;;;;5046759;28;20223;-65
2022/09/15 05:30:29;;;;;;;5.20;3.73;;;;;;;;;;5065842;28;20202;-65
2022/09/15 05:33:07;;;;;;;5.97;3.97;;;;;;;;;;5054503;28;20226;-66
2022/09/15 05:35:35;;;;;;;6.87;3.40;;;;;;;;;;5052445;28;20203;-66
2022/09/15 05:38:03;;;;;;;5.80;3.83;;;;;;;;;;5057216;28;20207;-66
2022/09/15 05:40:32;;;;;;;8.03;4.13;;;;;;;;;;5056916;28;20206;-67
2022/09/15 05:43:02;;;;;;;5.90;3.70;;;;;;;;;;5050847;28;20261;-67
2022/09/15 05:45:29;;;;;;;6.20;3.73;;;;;;;;;;5064992;28;20199;-64
2022/09/15 05:47:57;;;;;;;7.60;3.60;;;;;;;;;;5052961;28;20220;-64
2022/09/15 05:50:25;;;;;;;5.93;3.77;;;;;;;;;;5057788;28;20667;-65
2022/09/15 05:52:53;;;;;;;5.07;3.20;;;;;;;;;;5060017;28;20243;-66
2022/09/15 05:55:21;;;;;;;3.37;2.90;;;;;;;;;;5060872;28;20215;-66
2022/09/15 05:57:49;;;;;;;17.80;11.03;;;;;;;;;;5060144;28;20195;-64
2022/09/15 06:00:19;;;;;;;6.03;4.10;;;;;;;;;;5056996;28;20212;-64
2022/09/15 06:02:46;;;;;;;6.07;3.10;;;;;;;;;;5059193;28;20203;-64
2022/09/15 06:05:15;;;;;;;6.80;3.43;;;;;;;;;;5059842;28;20228;-65
2022/09/15 06:07:43;;;;;;;8.67;4.00;;;;;;;;;;5059641;28;20309;-65
2022/09/15 06:10:11;;;;;;;6.40;3.60;;;;;;;;;;5059347;28;20253;-65
2022/09/15 06:12:38;;;;;;;4.90;3.77;;;;;;;;;;5062081;28;20200;-65
2022/09/15 06:15:07;;;;;;;9.87;3.60;;;;;;;;;;5057697;28;20214;-63
2022/09/15 06:17:37;;;;;;;9.17;3.40;;;;;;;;;;5061312;28;20199;-64
2022/09/15 06:20:06;;;;;;;9.07;4.43;;;;;;;;;;5060042;28;20203;-63
2022/09/15 06:22:34;;;;;;;6.93;4.57;;;;;;;;;;5061050;28;20215;-63
2022/09/15 06:25:02;;;;;;;7.33;3.53;;;;;;;;;;5059071;28;20219;-64
2022/09/15 06:27:30;;;;;;;7.23;4.30;;;;;;;;;;5056185;28;20206;-63
2022/09/15 06:29:58;;;;;;;5.33;3.70;;;;;;;;;;5049098;28;20199;-63
2022/09/15 06:32:26;;;;;;;12.40;4.07;;;;;;;;;;5039153;28;20207;-63
2022/09/15 06:34:55;;;;;;;6.57;4.10;;;;;;;;;;5055934;28;20708;-64
2022/09/15 06:37:23;;;;;;;8.07;3.93;;;;;;;;;;5052023;28;20214;-64
2022/09/15 06:39:51;;;;;;;8.20;4.20;;;;;;;;;;5070372;28;20195;-63
2022/09/15 06:42:19;;;;;;;10.40;3.80;;;;;;;;;;5059322;28;20198;-64
2022/09/15 06:44:47;;;;;;;7.50;3.80;;;;;;;;;;5059176;28;20219;-63
2022/09/15 06:47:15;;;;;;;5.67;3.80;;;;;;;;;;5044419;28;20208;-64
2022/09/15 06:49:44;;;;;;;7.63;3.97;;;;;;;;;;5046945;28;20223;-62
2022/09/15 06:52:17;;;;;;;9.60;3.63;;;;;;;;;;5046594;28;20239;-64
2022/09/15 06:54:45;;;;;;;8.90;3.67;;;;;;;;;;5055696;28;20219;-62
2022/09/15 06:57:13;;;;;;;9.40;3.80;;;;;;;;;;5054709;28;20714;-62
2022/09/15 06:59:43;;;;;;;6.77;3.23;;;;;;;;;;5054536;28;20198;-63
2022/09/15 07:02:11;;;;;;;9.13;4.57;;;;;;;;;;5058976;28;20237;-62
2022/09/15 07:04:39;;;;;;;9.03;4.20;;;;;;;;;;5052415;28;20228;-62
2022/09/15 07:07:08;;;;;;;5.53;3.47;;;;;;;;;;5054476;28;20207;-61
2022/09/15 07:09:37;;;;;;;5.40;3.73;;;;;;;;;;5058348;28;20233;-61
2022/09/15 07:12:08;;;;;;;8.13;4.40;;;;;;;;;;5049577;28;20536;-61
2022/09/15 07:14:36;;;;;;;8.70;3.83;;;;;;;;;;5053412;28;20223;-61
2022/09/15 07:17:04;;;;;;;5.77;3.73;;;;;;;;;;5055118;28;20290;-61
2022/09/15 07:19:32;;;;;;;6.37;3.53;;;;;;;;;;5048927;28;20642;-61
2022/09/15 07:22:00;;;;;;;10.70;4.37;;;;;;;;;;5056617;28;20265;-62
2022/09/15 07:24:28;;;;;;;7.47;3.63;;;;;;;;;;5047632;28;20750;-62
2022/09/15 07:26:58;;;;;;;6.73;3.97;;;;;;;;;;5057032;28;20230;-62
2022/09/15 07:29:26;;;;;;;8.77;3.87;;;;;;;;;;5058050;28;20869;-63
2022/09/15 07:31:54;;;;;;;5.83;3.50;;;;;;;;;;5054560;28;20199;-62
2022/09/15 07:34:22;;;;;;;8.73;3.67;;;;;;;;;;5051660;28;20315;-62
2022/09/15 07:36:51;;;;;;;7.00;3.73;;;;;;;;;;5057713;28;20212;-63
2022/09/15 07:39:19;;;;;;;9.10;3.83;;;;;;;;;;5058004;28;20226;-67
2022/09/15 07:41:47;;;;;;;7.60;3.80;;;;;;;;;;5056604;28;20203;-62
2022/09/15 07:44:16;;;;;;;8.53;3.57;;;;;;;;;;5056083;28;20308;-62
2022/09/15 07:46:52;;;;;;;6.90;3.47;;;;;;;;;;5053792;28;20206;-62
2022/09/15 07:49:20;;;;;;;10.33;3.87;;;;;;;;;;5054481;28;20218;-62
2022/09/15 07:51:48;;;;;;;10.63;4.33;;;;;;;;;;5046040;28;20231;-62
2022/09/15 07:54:16;;;;;;;6.73;3.37;;;;;;;;;;5053690;28;20225;-66
2022/09/15 07:56:49;;;;;;;8.13;3.40;;;;;;;;;;5049536;28;20204;-65
2022/09/15 07:59:20;;;;;;;6.40;4.00;;;;;;;;;;5055473;28;20285;-64
2022/09/15 08:01:48;;;;;;;6.47;3.80;;;;;;;;;;5053844;28;20262;-65
2022/09/15 08:04:16;;;;;;;7.37;3.80;;;;;;;;;;5054732;28;20709;-65
2022/09/15 08:06:45;;;;;;;4.77;3.20;;;;;;;;;;5057235;28;20223;-65
2022/09/15 08:09:16;;;;;;;7.20;3.43;;;;;;;;;;5044581;28;20249;-65
2022/09/15 08:11:44;;;;;;;9.90;3.83;;;;;;;;;;5063335;28;20290;-65
2022/09/15 08:14:13;;;;;;;9.97;3.47;;;;;;;;;;5047107;28;20230;-65
2022/09/15 08:16:43;;;;;;;4.83;3.27;;;;;;;;;;5054349;28;20283;-66
2022/09/15 08:19:12;;;;;;;10.23;3.60;;;;;;;;;;5055902;28;20198;-67
2022/09/15 08:21:42;;;;;;;4.63;2.70;;;;;;;;;;5050444;28;20203;-65
2022/09/15 08:24:11;;;;;;;6.63;3.13;;;;;;;;;;5050892;28;20278;-69
2022/09/15 08:26:41;;;;;;;7.33;2.80;;;;;;;;;;5059608;28;20228;-68
2022/09/15 08:29:12;;;;;;;5.10;2.60;;;;;;;;;;5057723;28;20691;-66
2022/09/15 08:31:43;;;;;;;22.43;6.37;;;;;;;;;;5053875;28;20209;-66
2022/09/15 08:34:12;;;;;;;7.37;3.07;;;;;;;;;;5053277;28;20389;-63
2022/09/15 08:36:40;;;;;;;5.53;2.87;;;;;;;;;;5058498;28;20205;-63
2022/09/15 08:39:08;;;;;;;7.60;3.03;;;;;;;;;;5058250;28;20205;-66
2022/09/15 08:41:38;;;;;;;5.17;2.80;;;;;;;;;;5059025;28;20198;-65
2022/09/15 08:44:10;;;;;;;5.23;2.70;;;;;;;;;;5050143;28;20263;-65
2022/09/15 08:46:40;;;;;;;3.40;2.47;;;;;;;;;;5059444;28;20278;-65
2022/09/15 08:49:13;;;;;;;7.43;2.73;;;;;;;;;;5054661;28;20243;-65
2022/09/15 08:51:45;;;;;;;9.03;2.70;;;;;;;;;;5049930;28;20231;-65
2022/09/15 08:54:16;;;;;;;7.60;2.60;;;;;;;;;;5050186;28;20220;-66
2022/09/15 08:56:45;;;;;;;5.50;2.77;;;;;;;;;;5056593;28;20208;-65
2022/09/15 08:59:17;;;;;;;4.87;2.97;;;;;;;;;;5063736;28;20659;-62
2022/09/15 09:01:53;;;;;;;7.57;2.97;;;;;;;;;;5052150;28;20804;-64
2022/09/15 09:04:33;;;;;;;6.03;2.83;;;;;;;;;;5053004;28;20255;-64
2022/09/15 09:07:08;;;;;;;9.07;2.93;;;;;;;;;;5055155;28;20255;-64
2022/09/15 09:09:41;;;;;;;7.00;2.80;;;;;;;;;;5058498;28;20224;-63
2022/09/15 09:12:27;;;;;;;5.00;2.60;;;;;;;;;;5055081;28;20204;-63
2022/09/15 09:15:05;;;;;;;6.13;3.00;;;;;;;;;;5056891;28;20672;-64
2022/09/15 09:17:41;;;;;;;6.70;2.70;;;;;;;;;;5056614;28;20202;-63
2022/09/15 09:20:21;;;;;;;6.13;2.63;;;;;;;;;;5050070;28;20568;-62
2022/09/15 09:22:53;;;;;;;5.93;3.10;;;;;;;;;;5060175;28;20657;-66
2022/09/15 09:25:22;;;;;;;7.87;2.57;;;;;;;;;;5058284;28;20213;-67
2022/09/15 09:27:56;;;;;;;5.90;2.47;;;;;;;;;;5058968;28;20210;-67
2022/09/15 09:30:27;;;;;;;8.93;2.87;;;;;;;;;;5058117;28;20264;-65
2022/09/15 09:33:09;;;;;;;6.87;3.10;;;;;;;;;;5062101;28;20204;-66
2022/09/15 09:35:42;;;;;;;29.70;7.00;;;;;;;;;;5056949;28;20629;-63
2022/09/15 09:38:10;;;;;;;5.50;2.87;;;;;;;;;;5051774;28;20204;-66
2022/09/15 09:40:40;;;;;;;9.17;3.20;;;;;;;;;;5061781;28;20219;-64
2022/09/15 09:43:08;;;;;;;4.57;2.70;;;;;;;;;;5056070;28;20199;-63
2022/09/15 09:45:36;;;;;;;5.33;2.87;;;;;;;;;;5063871;28;20200;-62
2022/09/15 09:48:10;;;;;;;7.77;2.93;;;;;;;;;;5054684;28;20244;-62
2022/09/15 09:50:42;;;;;;;5.13;3.40;;;;;;;;;;5063144;28;20222;-65
2022/09/15 09:53:27;;;;;;;6.07;2.70;;;;;;;;;;5063337;28;20278;-68
2022/09/15 09:56:14;;;;;;;3.40;2.53;;;;;;;;;;5055913;28;20295;-65
2022/09/15 09:58:42;;;;;;;3.87;2.57;;;;;;;;;;5061924;28;20206;-62
2022/09/15 10:01:11;;;;;;;3.50;2.67;;;;;;;;;;5058192;28;20228;-63
2022/09/15 10:03:40;;;;;;;5.27;2.90;;;;;;;;;;5064284;28;20309;-62
2022/09/15 10:06:12;;;;;;;5.90;3.00;;;;;;;;;;5054984;28;20204;-64
2022/09/15 10:08:52;;;;;;;5.60;2.77;;;;;;;;;;5054945;28;20284;-62
2022/09/15 10:11:21;;;;;;;6.83;2.87;;;;;;;;;;5066673;28;20583;-62
2022/09/15 10:13:53;;;;;;;6.07;3.10;;;;;;;;;;5055656;28;20227;-62
2022/09/15 10:16:22;;;;;;;6.27;3.13;;;;;;;;;;5068641;28;20208;-61
2022/09/15 10:18:50;;;;;;;5.20;3.03;;;;;;;;;;5063456;28;20196;-64
2022/09/15 10:21:24;;;;;;;6.57;3.27;;;;;;;;;;5062988;28;20205;-65
2022/09/15 10:23:54;;;;;;;6.47;3.40;;;;;;;;;;5061453;28;20251;-66
2022/09/15 10:26:30;;;;;;;5.83;3.53;;;;;;;;;;5067404;28;20207;-66
2022/09/15 10:29:19;;;;;;;9.23;3.83;;;;;;;;;;5069581;28;20241;-66
2022/09/15 10:31:47;;;;;;;13.37;3.13;;;;;;;;;;5041289;28;20220;-62
2022/09/15 10:34:26;;;;;;;8.17;4.13;;;;;;;;;;5055067;28;20235;-63
2022/09/15 10:37:02;;;;;;;5.83;3.50;;;;;;;;;;5061192;28;20212;-64
2022/09/15 10:39:33;;;;;;;6.70;3.00;;;;;;;;;;5049460;28;20204;-61
2022/09/15 10:42:07;;;;;;;8.97;4.53;;;;;;;;;;5057615;28;20199;-62
2022/09/15 10:44:41;;;;;;;10.57;7.27;;;;;;;;;;5056944;28;20224;-64
2022/09/15 10:47:12;;;;;;;4.27;3.07;;;;;;;;;;5055618;28;20200;-63
2022/09/15 10:49:52;;;;;;;8.30;3.53;;;;;;;;;;5059322;28;20205;-64
2022/09/15 10:52:26;;;;;;;6.30;3.43;;;;;;;;;;5062546;28;20710;-61
2022/09/15 10:55:02;;;;;;;3.83;2.90;;;;;;;;;;5056437;28;20234;-63
2022/09/15 10:57:42;;;;;;;4.47;3.10;;;;;;;;;;5060360;28;20613;-60
2022/09/15 11:00:11;;;;;;;5.20;2.80;;;;;;;;;;5051160;28;20211;-61
2022/09/15 11:03:03;;;;;;;7.70;3.27;;;;;;;;;;5053508;28;20207;-60
2022/09/15 11:05:55;;;;;;;3.13;2.77;;;;;;;;;;5060734;28;20209;-61
2022/09/15 11:08:34;;;;;;;6.60;3.00;;;;;;;;;;5053144;28;20255;-61
2022/09/15 11:11:07;;;;;;;8.73;3.20;;;;;;;;;;5062035;28;20257;-61
2022/09/15 11:13:40;;;;;;;4.63;2.37;;;;;;;;;;5058107;28;20225;-61
2022/09/15 11:16:11;;;;;;;4.27;2.30;;;;;;;;;;5063313;28;20194;-61
2022/09/15 11:18:45;;;;;;;5.07;2.43;;;;;;;;;;5064494;28;20287;-61
2022/09/15 11:21:21;;;;;;;3.27;2.33;;;;;;;;;;5053669;28;20217;-61
2022/09/15 11:23:55;;;;;;;3.70;2.47;;;;;;;;;;5058668;28;20237;-61
2022/09/15 11:26:24;;;;;;;5.13;2.53;;;;;;;;;;5053989;28;20201;-62
2022/09/15 11:28:55;;;;;;;5.47;2.90;;;;;;;;;;5057496;28;20633;-62
2022/09/15 11:31:25;;;;;;;4.90;2.40;;;;;;;;;;5056597;28;20308;-62
2022/09/15 11:33:57;;;;;;;4.40;2.50;;;;;;;;;;5059247;28;20261;-62
2022/09/15 11:36:28;;;;;;;3.73;2.87;;;;;;;;;;5059519;28;20571;-62
2022/09/15 11:39:00;;;;;;;4.53;3.33;;;;;;;;;;5060425;28;20250;-62
2022/09/15 11:41:33;;;;;;;6.50;2.50;;;;;;;;;;5056009;28;20196;-62
2022/09/15 11:44:10;;;;;;;3.53;1.90;;;;;;;;;;5055824;28;20224;-61
2022/09/15 11:47:04;;;;;;;4.43;2.23;;;;;;;;;;5055137;28;20270;-62
2022/09/15 11:49:36;;;;;;;4.70;2.50;;;;;;;;;;5051638;28;20213;-61
2022/09/15 11:52:08;;;;;;;4.73;2.23;;;;;;;;;;5054462;28;20227;-61
2022/09/15 11:54:41;;;;;;;2.67;2.13;;;;;;;;;;5056948;28;20816;-61
2022/09/15 11:57:15;;;;;;;7.63;2.50;;;;;;;;;;5054250;28;20585;-61
2022/09/15 11:59:47;;;;;;;3.67;2.30;;;;;;;;;;5061399;28;20596;-62
2022/09/15 12:02:20;;;;;;;2.80;2.13;;;;;;;;;;5052410;28;20202;-61
2022/09/15 12:04:57;;;;;;;4.97;2.27;;;;;;;;;;5052305;28;20278;-62
2022/09/15 12:07:29;;;;;;;3.63;1.90;;;;;;;;;;5049847;28;20207;-62
2022/09/15 12:10:05;;;;;;;3.17;2.27;;;;;;;;;;5063360;28;20286;-62
2022/09/15 12:12:35;;;;;;;3.73;2.17;;;;;;;;;;5049930;28;20223;-61
2022/09/15 12:15:03;;;;;;;3.27;2.20;;;;;;;;;;5054980;28;20641;-62
2022/09/15 12:17:33;;;;;;;4.60;1.80;;;;;;;;;;5058815;28;20207;-61
2022/09/15 12:20:03;;;;;;;6.03;2.40;;;;;;;;;;5053912;28;20722;-62
2022/09/15 12:22:37;;;;;;;3.00;1.80;;;;;;;;;;5051591;28;20198;-60
2022/09/15 12:25:12;;;;;;;5.27;1.80;;;;;;;;;;5051547;28;20236;-61
2022/09/15 12:27:40;;;;;;;3.83;1.97;;;;;;;;;;5052916;28;20198;-61
2022/09/15 12:30:38;;;;;;;1.60;1.33;;;;;;;;;;5050646;28;20239;-61
2022/09/15 12:33:21;;;;;;;3.17;1.53;;;;;;;;;;5052083;28;20202;-61
2022/09/15 12:35:49;;;;;;;2.80;1.80;;;;;;;;;;5065784;28;20210;-61
2022/09/15 12:38:18;;;;;;;2.47;1.57;;;;;;;;;;5054747;28;20203;-62
2022/09/15 12:40:56;;;;;;;3.37;1.27;;;;;;;;;;5051479;28;20545;-62
2022/09/15 12:43:30;;;;;;;2.40;1.63;;;;;;;;;;5054934;28;20314;-61
2022/09/15 12:46:05;;;;;;;6.93;2.40;;;;;;;;;;5053845;28;20253;-61
2022/09/15 12:48:37;;;;;;;3.47;1.90;;;;;;;;;;5066074;28;20210;-61
2022/09/15 12:51:09;;;;;;;2.97;1.57;;;;;;;;;;5058758;28;20285;-61
2022/09/15 12:53:37;;;;;;;3.07;1.43;;;;;;;;;;5060526;28;20597;-61
2022/09/15 12:56:10;;;;;;;2.13;1.67;;;;;;;;;;5056257;28;20207;-64
2022/09/15 12:58:39;;;;;;;3.83;1.70;;;;;;;;;;5058604;28;20211;-70
2022/09/15 13:01:22;;;;;;;3.23;1.53;;;;;;;;;;5066698;28;20587;-70
2022/09/15 13:04:09;;;;;;;5.07;1.87;;;;;;;;;;5058933;28;20238;-67
2022/09/15 13:06:37;;;;;;;2.67;1.50;;;;;;;;;;5059149;28;20237;-67
2022/09/15 13:09:25;;;;;;;2.17;1.80;;;;;;;;;;5064733;28;20208;-71
2022/09/15 13:11:56;;;;;;;1.50;1.00;;;;;;;;;;5054406;28;20232;-69
2022/09/15 13:14:27;;;;;;;1.73;1.10;;;;;;;;;;5060432;28;20229;-70
2022/09/15 13:16:59;;;;;;;3.00;1.00;;;;;;;;;;5054712;28;20235;-70
2022/09/15 13:19:30;;;;;;;1.57;0.73;;;;;;;;;;5059497;28;20214;-68
2022/09/15 13:22:01;;;;;;;2.13;0.80;;;;;;;;;;5054475;28;20198;-70
2022/09/15 13:24:44;;;;;;;1.40;1.00;;;;;;;;;;5051707;28;20222;-70
2022/09/15 13:27:16;;;;;;;2.97;1.50;;;;;;;;;;5062766;28;20235;-67
2022/09/15 13:29:47;;;;;;;2.63;1.27;;;;;;;;;;5066260;28;20668;-67
2022/09/15 13:32:20;;;;;;;4.07;1.10;;;;;;;;;;5059781;28;20960;-67
2022/09/15 13:35:07;;;;;;;2.97;1.00;;;;;;;;;;5058040;28;20679;-69
2022/09/15 13:37:55;;;;;;;1.37;0.77;;;;;;;;;;5058966;28;20203;-68
2022/09/15 13:41:06;;;;;;;0.70;0.50;;;;;;;;;;5051106;28;20205;-67
2022/09/15 13:43:47;;;;;;;0.70;0.60;;;;;;;;;;5051238;28;20224;-72
2022/09/15 13:46:21;;;;;;;1.10;0.70;;;;;;;;;;5046428;28;20215;-72
2022/09/15 13:48:56;;;;;;;0.97;0.70;;;;;;;;;;5051314;28;20202;-67
2022/09/15 13:51:26;;;;;;;0.70;0.50;;;;;;;;;;5054014;28;20209;-67
2022/09/15 13:53:58;;;;;;;0.97;0.70;;;;;;;;;;5061103;28;20226;-67
2022/09/15 13:56:27;;;;;;;0.87;0.60;;;;;;;;;;5046640;28;20206;-65
2022/09/15 13:59:01;;;;;;;3.73;0.90;;;;;;;;;;5061709;28;20223;-64
2022/09/15 14:01:48;;;;;;;1.33;0.80;;;;;;;;;;5059584;28;20246;-63
2022/09/15 14:04:18;;;;;;;1.27;0.77;;;;;;;;;;5054346;28;20257;-65
2022/09/15 14:06:47;;;;;;;2.17;0.70;;;;;;;;;;5060939;28;20669;-69
2022/09/15 14:09:16;;;;;;;1.90;0.70;;;;;;;;;;5052862;28;20207;-70
2022/09/15 14:11:47;;;;;;;0.80;0.67;;;;;;;;;;5058927;28;20206;-64
2022/09/15 14:14:33;;;;;;;2.00;1.03;;;;;;;;;;5055961;28;20230;-65
2022/09/15 14:17:03;;;;;;;4.67;0.80;;;;;;;;;;5059697;28;20659;-65
2022/09/15 14:19:35;;;;;;;2.17;1.97;;;;;;;;;;5057028;28;20210;-64
2022/09/15 14:22:18;;;;;;;2.87;1.40;;;;;;;;;;5059579;28;20206;-64
2022/09/15 14:24:46;;;;;;;2.63;0.93;;;;;;;;;;5057097;28;20235;-65
2022/09/15 14:27:17;;;;;;;2.73;0.90;;;;;;;;;;5054111;28;20280;-65
2022/09/15 14:29:49;;;;;;;2.07;0.80;;;;;;;;;;5057816;28;20206;-66
2022/09/15 14:32:17;;;;;;;0.60;0.60;;;;;;;;;;5056684;28;20278;-66
2022/09/15 14:34:46;;;;;;;0.83;0.70;;;;;;;;;;5057540;28;20225;-66
2022/09/15 14:37:22;;;;;;;1.47;0.87;;;;;;;;;;5058978;28;20228;-66
2022/09/15 14:39:55;;;;;;;1.93;0.70;;;;;;;;;;5059527;28;20206;-63
2022/09/15 14:42:29;;;;;;;1.33;0.80;;;;;;;;;;5048694;28;20204;-63
2022/09/15 14:45:10;;;;;;;3.60;1.10;;;;;;;;;;5051777;28;20224;-64
2022/09/15 14:48:00;;;;;;;2.20;1.00;;;;;;;;;;5054143;28;20207;-65
2022/09/15 14:50:29;;;;;;;2.07;1.23;;;;;;;;;;5055454;28;20707;-63
2022/09/15 14:53:02;;;;;;;2.20;1.23;;;;;;;;;;5060562;28;20261;-64
2022/09/15 14:55:33;;;;;;;1.43;1.00;;;;;;;;;;5053635;28;20208;-63
2022/09/15 14:58:04;;;;;;;2.20;1.07;;;;;;;;;;5055500;28;20775;-62
2022/09/15 15:00:39;;;;;;;1.17;0.80;;;;;;;;;;5058285;28;20226;-62
2022/09/15 15:03:18;;;;;;;3.57;2.13;;;;;;;;;;5054528;28;20241;-62
2022/09/15 15:05:49;;;;;;;2.43;1.60;;;;;;;;;;5062747;28;20821;-62
2022/09/15 15:08:32;;;;;;;3.80;1.00;;;;;;;;;;5065917;28;20204;-62